| time (UTC) | temp C | wind direction | speed KPH | gust KPH | rain 1hr cm | rain 24hr cm | rain mn cm | humidity % | barometer mb |
| 20260507144548 | 26 | 157 | 4.8 | 20.9 | 0.00 | 0.00 | 0.00 | 39 | 1009.6 |
| 20260507144048 | 26 | 67 | 4.8 | 17.7 | 0.00 | 0.00 | 0.00 | 39 | 1009.6 |
| 20260507143548 | 26 | 157 | 1.6 | 11.3 | 0.00 | 0.00 | 0.00 | 39 | 1009.6 |
| 20260507143047 | 26 | 157 | 4.8 | 22.5 | 0.00 | 0.00 | 0.00 | 38 | 1009.6 |
| 20260507142547 | 26 | 225 | 11.3 | 30.6 | 0.00 | 0.00 | 0.00 | 38 | 1009.6 |
| 20260507142047 | 26 | 225 | 6.4 | 22.5 | 0.00 | 0.00 | 0.00 | 38 | 1009.5 |
| 20260507141547 | 26 | 202 | 3.2 | 27.4 | 0.00 | 0.00 | 0.00 | 38 | 1009.6 |
| 20260507141046 | 26 | 225 | 9.7 | 37.0 | 0.00 | 0.00 | 0.00 | 37 | 1009.6 |
| 20260507140546 | 26 | 247 | 11.3 | 33.8 | 0.00 | 0.00 | 0.00 | 37 | 1009.6 |
| 20260507140046 | 26 | 225 | 12.9 | 38.6 | 0.00 | 0.00 | 0.00 | 37 | 1009.6 |
| 20260507135545 | 26 | 202 | 24.1 | 38.6 | 0.00 | 0.00 | 0.00 | 37 | 1009.6 |
| 20260507135045 | 26 | 202 | 11.3 | 12.9 | 0.00 | 0.00 | 0.00 | 40 | 1009.6 |
| 20260507134545 | 26 | 157 | 0.0 | 9.7 | 0.00 | 0.00 | 0.00 | 40 | 1009.6 |
| 20260507134044 | 26 | 180 | 3.2 | 19.3 | 0.00 | 0.00 | 0.00 | 40 | 1009.6 |
| 20260507133544 | 26 | 157 | 6.4 | 11.3 | 0.00 | 0.00 | 0.00 | 40 | 1009.6 |
| 20260507133044 | 26 | 157 | 4.8 | 19.3 | 0.00 | 0.00 | 0.00 | 39 | 1009.5 |
| 20260507132543 | 26 | 67 | 4.8 | 17.7 | 0.00 | 0.00 | 0.00 | 39 | 1009.5 |
| 20260507132043 | 27 | 45 | 6.4 | 24.1 | 0.00 | 0.00 | 0.00 | 38 | 1009.5 |
| 20260507131543 | 27 | 157 | 4.8 | 22.5 | 0.00 | 0.00 | 0.00 | 37 | 1009.5 |
| 20260507131043 | 27 | 90 | 1.6 | 14.5 | 0.00 | 0.00 | 0.00 | 36 | 1009.5 |
| 20260507130542 | 27 | 157 | 4.8 | 9.7 | 0.00 | 0.00 | 0.00 | 36 | 1009.5 |
| 20260507130042 | 27 | 135 | 6.4 | 11.3 | 0.00 | 0.00 | 0.00 | 35 | 1009.5 |
| 20260507125542 | 27 | 157 | 3.2 | 20.9 | 0.00 | 0.00 | 0.00 | 35 | 1009.5 |
| 20260507125041 | 27 | 157 | 6.4 | 16.1 | 0.00 | 0.00 | 0.00 | 35 | 1009.5 |
| 20260507124541 | 27 | 135 | 0.0 | 27.4 | 0.00 | 0.00 | 0.00 | 35 | 1009.5 |
| 20260507124041 | 27 | 225 | 12.9 | 32.2 | 0.00 | 0.00 | 0.00 | 35 | 1009.4 |
| 20260507123541 | 28 | 202 | 4.8 | 22.5 | 0.00 | 0.00 | 0.00 | 35 | 1009.5 |
| 20260507123040 | 28 | 225 | 16.1 | 24.1 | 0.00 | 0.00 | 0.00 | 35 | 1009.5 |
| 20260507122540 | 28 | 202 | 0.0 | 27.4 | 0.00 | 0.00 | 0.00 | 34 | 1009.4 |
| 20260507122040 | 28 | 225 | 6.4 | 32.2 | 0.00 | 0.00 | 0.00 | 34 | 1009.5 |
| 20260507121539 | 28 | 202 | 16.1 | 37.0 | 0.00 | 0.00 | 0.00 | 33 | 1009.4 |
| 20260507121039 | 29 | 292 | 11.3 | 19.3 | 0.00 | 0.00 | 0.00 | 33 | 1009.5 |
| 20260507120539 | 29 | 247 | 0.0 | 17.7 | 0.00 | 0.00 | 0.00 | 33 | 1009.5 |
| 20260507120039 | 28 | 157 | 4.8 | 16.1 | 0.00 | 0.00 | 0.00 | 33 | 1009.4 |
| 20260507115538 | 28 | 180 | 0.0 | 14.5 | 0.00 | 0.00 | 0.00 | 33 | 1009.4 |
| 20260507115038 | 28 | 90 | 0.0 | 12.9 | 0.00 | 0.00 | 0.00 | 32 | 1009.4 |
| 20260507114538 | 28 | 45 | 0.0 | 16.1 | 0.00 | 0.00 | 0.00 | 30 | 1009.4 |
| 20260507114037 | 29 | 67 | 4.8 | 12.9 | 0.00 | 0.00 | 0.00 | 32 | 1009.4 |
| 20260507113537 | 28 | 135 | 12.9 | 32.2 | 0.00 | 0.00 | 0.00 | 33 | 1009.4 |
| 20260507113037 | 28 | 45 | 0.0 | 8.0 | 0.00 | 0.00 | 0.00 | 33 | 1009.4 |
| 20260507112537 | 29 | 67 | 3.2 | 9.7 | 0.00 | 0.00 | 0.00 | 33 | 1009.4 |
| 20260507112036 | 28 | 292 | 0.0 | 3.2 | 0.00 | 0.00 | 0.00 | 34 | 1009.4 |
| 20260507111536 | 28 | 292 | 0.0 | 9.7 | 0.00 | 0.00 | 0.00 | 35 | 1009.4 |
| 20260507111036 | 27 | 292 | 9.7 | 17.7 | 0.00 | 0.00 | 0.00 | 35 | 1009.3 |
| 20260507110535 | 27 | 315 | 0.0 | 4.8 | 0.00 | 0.00 | 0.00 | 35 | 1009.3 |
| 20260507110035 | 26 | 315 | 3.2 | 9.7 | 0.00 | 0.00 | 0.00 | 35 | 1009.3 |
| 20260507105535 | 26 | 337 | 9.7 | 9.7 | 0.00 | 0.00 | 0.00 | 34 | 1009.3 |
| 20260507105034 | 27 | 22 | 3.2 | 8.0 | 0.00 | 0.00 | 0.00 | 34 | 1009.3 |
| 20260507104534 | 27 | 67 | 0.0 | 9.7 | 0.00 | 0.00 | 0.00 | 33 | 1009.4 |
| 20260507104034 | 28 | 22 | 3.2 | 9.7 | 0.00 | 0.00 | 0.00 | 32 | 1009.4 |
| 20260507103534 | 28 | 337 | 0.0 | 4.8 | 0.00 | 0.00 | 0.00 | 35 | 1009.6 |
| 20260507103033 | 27 | 292 | 0.0 | 4.8 | 0.00 | 0.00 | 0.00 | 36 | 1009.7 |
| 20260507102533 | 27 | 292 | 0.0 | 6.4 | 0.00 | 0.00 | 0.00 | 36 | 1009.9 |
| 20260507102033 | 25 | 180 | 0.0 | 9.7 | 0.00 | 0.00 | 0.00 | 36 | 1010.1 |
| 20260507101532 | 25 | 0 | 3.2 | 9.7 | 0.00 | 0.00 | 0.00 | 35 | 1010.4 |
| 20260507101032 | 25 | 22 | 4.8 | 6.4 | 0.00 | 0.00 | 0.00 | 36 | 1010.4 |
| 20260507100532 | 25 | 90 | 4.8 | 12.9 | 0.00 | 0.00 | 0.00 | 35 | 1010.4 |
| 20260507100031 | 25 | 22 | 0.0 | 6.4 | 0.00 | 0.00 | 0.00 | 36 | 1010.5 |
| 20260507095531 | 25 | 22 | 6.4 | 11.3 | 0.00 | 0.00 | 0.00 | 35 | 1010.6 |
| 20260507095031 | 25 | 22 | 0.0 | 4.8 | 0.00 | 0.00 | 0.00 | 37 | 1010.5 |
| 20260507094531 | 25 | 22 | 3.2 | 6.4 | 0.00 | 0.00 | 0.00 | 36 | 1010.7 |
| 20260507094030 | 25 | 22 | 3.2 | 8.0 | 0.00 | 0.00 | 0.00 | 35 | 1010.7 |
| 20260507093530 | 25 | 0 | 0.0 | 6.4 | 0.00 | 0.00 | 0.00 | 37 | 1010.7 |
| 20260507093030 | 25 | 22 | 0.0 | 4.8 | 0.00 | 0.00 | 0.00 | 38 | 1010.8 |
| 20260507092529 | 24 | 67 | 4.8 | 8.0 | 0.00 | 0.00 | 0.00 | 39 | 1010.9 |
| 20260507092029 | 24 | 45 | 1.6 | 6.4 | 0.00 | 0.00 | 0.00 | 39 | 1011.1 |
| 20260507091529 | 24 | 45 | 4.8 | 4.8 | 0.00 | 0.00 | 0.00 | 39 | 1011.2 |
| 20260507091029 | 23 | 0 | 4.8 | 4.8 | 0.00 | 0.00 | 0.00 | 41 | 1011.1 |
| 20260507090528 | 23 | 22 | 0.0 | 6.4 | 0.00 | 0.00 | 0.00 | 43 | 1011.2 |
| 20260507090028 | 23 | 22 | 0.0 | 3.2 | 0.00 | 0.00 | 0.00 | 45 | 1011.1 |
| 20260507085528 | 22 | 22 | 3.2 | 4.8 | 0.00 | 0.00 | 0.00 | 46 | 1011.2 |
| 20260507085027 | 22 | 67 | 0.0 | 4.8 | 0.00 | 0.00 | 0.00 | 49 | 1011.2 |
| 20260507084529 | 22 | 45 | 1.6 | 9.7 | 0.00 | 0.00 | 0.00 | 50 | 1011.4 |
| 20260507084027 | 21 | 67 | 0.0 | 6.4 | 0.00 | 0.00 | 0.00 | 52 | 1011.4 |
| 20260507083527 | 21 | 67 | 3.2 | 9.7 | 0.00 | 0.00 | 0.00 | 52 | 1011.4 |
| 20260507083026 | 21 | 45 | 4.8 | 9.7 | 0.00 | 0.00 | 0.00 | 54 | 1011.3 |
| 20260507082526 | 20 | 90 | 1.6 | 9.7 | 0.00 | 0.00 | 0.00 | 54 | 1011.4 |
| 20260507082026 | 20 | 22 | 6.4 | 11.3 | 0.00 | 0.00 | 0.00 | 55 | 1011.5 |
| 20260507081525 | 20 | 67 | 3.2 | 9.7 | 0.00 | 0.00 | 0.00 | 55 | 1011.4 |
| 20260507081025 | 20 | 67 | 4.8 | 12.9 | 0.00 | 0.00 | 0.00 | 55 | 1011.5 |
| 20260507080525 | 20 | 45 | 6.4 | 12.9 | 0.00 | 0.00 | 0.00 | 55 | 1011.5 |
| 20260507080024 | 20 | 67 | 6.4 | 12.9 | 0.00 | 0.00 | 0.00 | 55 | 1011.5 |
| 20260507075524 | 20 | 67 | 8.0 | 14.5 | 0.00 | 0.00 | 0.00 | 54 | 1011.6 |
| 20260507075024 | 20 | 67 | 14.5 | 14.5 | 0.00 | 0.00 | 0.00 | 55 | 1011.6 |
| 20260507074524 | 20 | 67 | 12.9 | 14.5 | 0.00 | 0.00 | 0.00 | 55 | 1011.7 |
| 20260507074023 | 19 | 67 | 6.4 | 11.3 | 0.00 | 0.00 | 0.00 | 56 | 1011.7 |
| 20260507073523 | 19 | 45 | 9.7 | 12.9 | 0.00 | 0.00 | 0.00 | 57 | 1011.7 |
| 20260507073023 | 18 | 22 | 8.0 | 9.7 | 0.00 | 0.00 | 0.00 | 58 | 1011.8 |
| 20260507072522 | 18 | 22 | 6.4 | 11.3 | 0.00 | 0.00 | 0.00 | 59 | 1011.9 |
| 20260507072022 | 18 | 45 | 8.0 | 11.3 | 0.00 | 0.00 | 0.00 | 58 | 1011.8 |
| 20260507071522 | 18 | 22 | 9.7 | 9.7 | 0.00 | 0.00 | 0.00 | 57 | 1011.9 |
| 20260507071022 | 18 | 67 | 8.0 | 9.7 | 0.00 | 0.00 | 0.00 | 57 | 1011.9 |
| 20260507070521 | 18 | 45 | 6.4 | 9.7 | 0.00 | 0.00 | 0.00 | 57 | 1012.0 |
| 20260507070021 | 18 | 67 | 8.0 | 8.0 | 0.00 | 0.00 | 0.00 | 57 | 1012.0 |
| 20260507065521 | 18 | 67 | 4.8 | 8.0 | 0.00 | 0.00 | 0.00 | 56 | 1011.9 |
| 20260507065020 | 18 | 45 | 0.0 | 9.7 | 0.00 | 0.00 | 0.00 | 56 | 1011.9 |
| 20260507064520 | 18 | 45 | 3.2 | 9.7 | 0.00 | 0.00 | 0.00 | 58 | 1011.9 |
| 20260507064020 | 18 | 22 | 6.4 | 11.3 | 0.00 | 0.00 | 0.00 | 57 | 1011.9 |
| 20260507063520 | 18 | 67 | 9.7 | 9.7 | 0.00 | 0.00 | 0.00 | 58 | 1012.0 |
| 20260507063019 | 18 | 22 | 3.2 | 9.7 | 0.00 | 0.00 | 0.00 | 58 | 1011.9 |
| 20260507062519 | 18 | 67 | 3.2 | 9.7 | 0.00 | 0.00 | 0.00 | 58 | 1012.0 |
| 20260507062019 | 18 | 67 | 4.8 | 9.7 | 0.00 | 0.00 | 0.00 | 58 | 1012.0 |
| 20260507061518 | 18 | 45 | 6.4 | 9.7 | 0.00 | 0.00 | 0.00 | 57 | 1012.1 |
| 20260507061018 | 18 | 45 | 1.6 | 8.0 | 0.00 | 0.00 | 0.00 | 57 | 1012.1 |
| 20260507060518 | 18 | 45 | 6.4 | 8.0 | 0.00 | 0.00 | 0.00 | 57 | 1012.1 |
| 20260507060017 | 18 | 45 | 6.4 | 8.0 | 0.00 | 0.00 | 0.00 | 57 | 1012.2 |
| 20260507055517 | 18 | 22 | 6.4 | 6.4 | 0.00 | 0.00 | 0.00 | 58 | 1012.2 |
| 20260507055017 | 18 | 22 | 0.0 | 3.2 | 0.00 | 0.00 | 0.00 | 59 | 1012.2 |
| 20260507054517 | 18 | 45 | 0.0 | 3.2 | 0.00 | 0.00 | 0.00 | 61 | 1012.2 |
| 20260507054016 | 17 | 45 | 0.0 | 0.0 | 0.00 | 0.00 | 0.00 | 63 | 1012.2 |
| 20260507053516 | 16 | 45 | 0.0 | 6.4 | 0.00 | 0.00 | 0.00 | 63 | 1012.2 |
| 20260507053016 | 16 | 67 | 0.0 | 3.2 | 0.00 | 0.00 | 0.00 | 63 | 1012.2 |
| 20260507052515 | 15 | 67 | 3.2 | 8.0 | 0.00 | 0.00 | 0.00 | 64 | 1012.2 |
| 20260507052015 | 15 | 67 | 3.2 | 6.4 | 0.00 | 0.00 | 0.00 | 65 | 1012.1 |
| 20260507051515 | 15 | 22 | 3.2 | 6.4 | 0.00 | 0.00 | 0.00 | 66 | 1012.1 |
| 20260507051015 | 14 | 67 | 3.2 | 6.4 | 0.00 | 0.00 | 0.00 | 67 | 1012.2 |
| 20260507050514 | 14 | 67 | 3.2 | 6.4 | 0.00 | 0.00 | 0.00 | 68 | 1012.2 |
| 20260507050014 | 13 | 67 | 3.2 | 3.2 | 0.00 | 0.00 | 0.00 | 69 | 1012.3 |
| 20260507045514 | 13 | 67 | 0.0 | 4.8 | 0.00 | 0.00 | 0.00 | 70 | 1012.3 |
| 20260507045013 | 12 | 67 | 4.8 | 4.8 | 0.00 | 0.00 | 0.00 | 70 | 1012.3 |
| 20260507044513 | 12 | 67 | 4.8 | 9.7 | 0.00 | 0.00 | 0.00 | 70 | 1012.2 |
| 20260507044013 | 12 | 45 | 6.4 | 11.3 | 0.00 | 0.00 | 0.00 | 70 | 1012.2 |
| 20260507043512 | 12 | 67 | 3.2 | 8.0 | 0.00 | 0.00 | 0.00 | 71 | 1012.3 |
| 20260507043012 | 12 | 45 | 6.4 | 6.4 | 0.00 | 0.00 | 0.00 | 71 | 1012.2 |
| 20260507042512 | 12 | 45 | 1.6 | 8.0 | 0.00 | 0.00 | 0.00 | 70 | 1012.2 |
| 20260507042012 | 12 | 157 | 1.6 | 3.2 | 0.00 | 0.00 | 0.00 | 69 | 1012.3 |
| 20260507041511 | 12 | 180 | 0.0 | 0.0 | 0.00 | 0.00 | 0.00 | 68 | 1012.2 |
| 20260507041011 | 12 | 180 | 0.0 | 0.0 | 0.00 | 0.00 | 0.00 | 68 | 1012.2 |
| 20260507040511 | 12 | 180 | 0.0 | 0.0 | 0.00 | 0.00 | 0.00 | 68 | 1012.2 |
| 20260507040011 | 12 | 180 | 0.0 | 1.6 | 0.00 | 0.00 | 0.00 | 68 | 1012.2 |
| 20260507035510 | 12 | 180 | 0.0 | 0.0 | 0.00 | 0.00 | 0.00 | 69 | 1012.1 |
| 20260507035010 | 12 | 180 | 0.0 | 0.0 | 0.00 | 0.00 | 0.00 | 69 | 1012.0 |
| 20260507034510 | 12 | 180 | 0.0 | 0.0 | 0.00 | 0.00 | 0.00 | 70 | 1012.0 |
| 20260507034009 | 12 | 180 | 0.0 | 0.0 | 0.00 | 0.00 | 0.00 | 71 | 1012.0 |
| 20260507033509 | 12 | 180 | 0.0 | 0.0 | 0.00 | 0.00 | 0.00 | 72 | 1011.9 |
| 20260507033009 | 11 | 180 | 0.0 | 0.0 | 0.00 | 0.00 | 0.00 | 73 | 1011.9 |
| 20260507032508 | 10 | 180 | 0.0 | 0.0 | 0.00 | 0.00 | 0.00 | 73 | 1011.7 |
| 20260507032008 | 10 | 180 | 0.0 | 0.0 | 0.00 | 0.00 | 0.00 | 73 | 1011.7 |
| 20260507031508 | 10 | 180 | 0.0 | 0.0 | 0.00 | 0.00 | 0.00 | 73 | 1011.6 |
| 20260507031008 | 10 | 180 | 0.0 | 1.6 | 0.00 | 0.00 | 0.00 | 73 | 1011.6 |
| 20260507030507 | 10 | 180 | 0.0 | 0.0 | 0.00 | 0.00 | 0.00 | 73 | 1011.7 |
| 20260507030007 | 10 | 180 | 0.0 | 0.0 | 0.00 | 0.00 | 0.00 | 73 | 1011.7 |
| 20260507025507 | 10 | 180 | 0.0 | 0.0 | 0.00 | 0.00 | 0.00 | 73 | 1011.6 |
| 20260507025006 | 10 | 180 | 0.0 | 0.0 | 0.00 | 0.00 | 0.00 | 73 | 1011.5 |
| 20260507024506 | 10 | 180 | 0.0 | 0.0 | 0.00 | 0.00 | 0.00 | 73 | 1011.6 |
| 20260507024006 | 10 | 180 | 0.0 | 0.0 | 0.00 | 0.00 | 0.00 | 73 | 1011.5 |
| 20260507023505 | 10 | 180 | 0.0 | 0.0 | 0.00 | 0.00 | 0.00 | 73 | 1011.5 |
| 20260507023005 | 10 | 180 | 0.0 | 0.0 | 0.00 | 0.00 | 0.00 | 73 | 1011.5 |
| 20260507022505 | 10 | 180 | 0.0 | 0.0 | 0.00 | 0.00 | 0.00 | 72 | 1011.5 |
| 20260507022005 | 10 | 180 | 0.0 | 0.0 | 0.00 | 0.00 | 0.00 | 72 | 1011.5 |
| 20260507021504 | 10 | 180 | 0.0 | 0.0 | 0.00 | 0.00 | 0.00 | 72 | 1011.4 |
| 20260507021004 | 10 | 180 | 0.0 | 0.0 | 0.00 | 0.00 | 0.00 | 72 | 1011.5 |
| 20260507020504 | 10 | 180 | 0.0 | 0.0 | 0.00 | 0.00 | 0.00 | 72 | 1011.4 |
| 20260507020003 | 10 | 180 | 0.0 | 1.6 | 0.00 | 0.00 | 0.00 | 72 | 1011.4 |
| 20260507015503 | 11 | 180 | 0.0 | 0.0 | 0.00 | 0.00 | 0.00 | 72 | 1011.4 |
| 20260507015003 | 11 | 180 | 0.0 | 0.0 | 0.00 | 0.00 | 0.00 | 71 | 1011.3 |
| 20260507014503 | 11 | 180 | 0.0 | 0.0 | 0.00 | 0.00 | 0.00 | 71 | 1011.3 |
| 20260507014002 | 11 | 180 | 0.0 | 0.0 | 0.00 | 0.00 | 0.00 | 72 | 1011.4 |
| 20260507013502 | 11 | 180 | 0.0 | 1.6 | 0.00 | 0.00 | 0.00 | 72 | 1011.3 |
| 20260507013002 | 11 | 180 | 0.0 | 1.6 | 0.00 | 0.00 | 0.00 | 72 | 1011.3 |
| 20260507012501 | 11 | 180 | 0.0 | 0.0 | 0.00 | 0.00 | 0.00 | 72 | 1011.4 |
| 20260507012001 | 11 | 180 | 0.0 | 0.0 | 0.00 | 0.00 | 0.00 | 72 | 1011.4 |
| 20260507011501 | 11 | 180 | 0.0 | 4.8 | 0.00 | 0.00 | 0.00 | 73 | 1011.3 |
| 20260507011000 | 11 | 202 | 3.2 | 3.2 | 0.00 | 0.00 | 0.00 | 72 | 1011.3 |
| 20260507010500 | 11 | 225 | 0.0 | 1.6 | 0.00 | 0.00 | 0.00 | 72 | 1011.2 |
| 20260507010000 | 11 | 225 | 0.0 | 3.2 | 0.00 | 0.00 | 0.00 | 72 | 1011.3 |
| 20260507005500 | 11 | 225 | 0.0 | 0.0 | 0.00 | 0.00 | 0.00 | 71 | 1011.3 |
| 20260507004959 | 11 | 225 | 0.0 | 3.2 | 0.00 | 0.00 | 0.00 | 71 | 1011.2 |
| 20260507004459 | 11 | 225 | 0.0 | 0.0 | 0.00 | 0.00 | 0.00 | 71 | 1011.2 |
| 20260507003959 | 11 | 225 | 0.0 | 0.0 | 0.00 | 0.00 | 0.00 | 71 | 1011.2 |
| 20260507003458 | 11 | 225 | 0.0 | 0.0 | 0.00 | 0.00 | 0.00 | 71 | 1011.2 |
| 20260507002958 | 12 | 225 | 0.0 | 0.0 | 0.00 | 0.00 | 0.00 | 71 | 1011.0 |
| 20260507002458 | 12 | 225 | 0.0 | 0.0 | 0.00 | 0.00 | 0.00 | 71 | 1011.1 |
| 20260507001958 | 12 | 225 | 0.0 | 0.0 | 0.00 | 0.00 | 0.00 | 70 | 1011.1 |
| 20260507001457 | 12 | 225 | 0.0 | 3.2 | 0.00 | 0.00 | 0.00 | 70 | 1011.0 |
| 20260507000957 | 12 | 225 | 0.0 | 0.0 | 0.00 | 0.00 | 0.00 | 70 | 1011.0 |
| 20260507000457 | 12 | 225 | 0.0 | 0.0 | 0.00 | 0.00 | 0.00 | 71 | 1011.0 |
| 20260506235956 | 12 | 225 | 0.0 | 1.6 | 0.00 | 0.00 | 0.00 | 71 | 1011.0 |
| 20260506235456 | 12 | 225 | 0.0 | 0.0 | 0.00 | 0.00 | 0.00 | 71 | 1010.9 |
| 20260506234956 | 12 | 225 | 0.0 | 1.6 | 0.00 | 0.00 | 0.00 | 71 | 1010.9 |
| 20260506234455 | 12 | 225 | 0.0 | 0.0 | 0.00 | 0.00 | 0.00 | 70 | 1011.0 |
| 20260506233955 | 12 | 225 | 0.0 | 0.0 | 0.00 | 0.00 | 0.00 | 70 | 1010.9 |
| 20260506233455 | 12 | 225 | 0.0 | 3.2 | 0.00 | 0.00 | 0.00 | 70 | 1011.0 |
| 20260506232955 | 12 | 225 | 0.0 | 3.2 | 0.00 | 0.00 | 0.00 | 69 | 1010.9 |
| 20260506232454 | 12 | 225 | 0.0 | 0.0 | 0.00 | 0.00 | 0.00 | 68 | 1011.0 |
| 20260506231954 | 12 | 225 | 0.0 | 0.0 | 0.00 | 0.00 | 0.00 | 68 | 1010.9 |
| 20260506231454 | 12 | 225 | 0.0 | 0.0 | 0.00 | 0.00 | 0.00 | 68 | 1010.9 |
| 20260506230953 | 12 | 225 | 0.0 | 1.6 | 0.00 | 0.00 | 0.00 | 67 | 1010.9 |
| 20260506230453 | 12 | 225 | 0.0 | 0.0 | 0.00 | 0.00 | 0.00 | 66 | 1010.8 |
| 20260506225953 | 12 | 225 | 0.0 | 0.0 | 0.00 | 0.00 | 0.00 | 66 | 1010.8 |
| 20260506225453 | 12 | 225 | 0.0 | 4.8 | 0.00 | 0.00 | 0.00 | 66 | 1010.9 |
| 20260506224952 | 13 | 225 | 1.6 | 3.2 | 0.00 | 0.00 | 0.00 | 65 | 1010.7 |
| 20260506224452 | 13 | 225 | 3.2 | 6.4 | 0.00 | 0.00 | 0.00 | 66 | 1010.8 |
| 20260506223952 | 13 | 225 | 1.6 | 4.8 | 0.00 | 0.00 | 0.00 | 66 | 1010.7 |
| 20260506223451 | 13 | 225 | 4.8 | 9.7 | 0.00 | 0.00 | 0.00 | 64 | 1010.7 |
| 20260506222951 | 13 | 202 | 0.0 | 4.8 | 0.00 | 0.00 | 0.00 | 63 | 1010.7 |
| 20260506222451 | 13 | 202 | 0.0 | 8.0 | 0.00 | 0.00 | 0.00 | 63 | 1010.7 |
| 20260506221951 | 13 | 202 | 1.6 | 3.2 | 0.00 | 0.00 | 0.00 | 62 | 1010.6 |
| 20260506221450 | 14 | 180 | 3.2 | 3.2 | 0.00 | 0.00 | 0.00 | 63 | 1010.7 |
| 20260506220950 | 14 | 180 | 0.0 | 6.4 | 0.00 | 0.00 | 0.00 | 63 | 1010.5 |
| 20260506220450 | 14 | 180 | 3.2 | 4.8 | 0.00 | 0.00 | 0.00 | 63 | 1010.5 |
| 20260506215949 | 14 | 180 | 4.8 | 6.4 | 0.00 | 0.00 | 0.00 | 63 | 1010.5 |
| 20260506215449 | 14 | 180 | 4.8 | 9.7 | 0.00 | 0.00 | 0.00 | 63 | 1010.4 |
| 20260506214949 | 15 | 90 | 1.6 | 6.4 | 0.00 | 0.00 | 0.00 | 62 | 1010.4 |
| 20260506214448 | 15 | 90 | 0.0 | 4.8 | 0.00 | 0.00 | 0.00 | 61 | 1010.3 |
| 20260506213948 | 15 | 90 | 4.8 | 4.8 | 0.00 | 0.00 | 0.00 | 61 | 1010.4 |
| 20260506213448 | 15 | 90 | 1.6 | 3.2 | 0.00 | 0.00 | 0.00 | 60 | 1010.4 |
| 20260506212948 | 15 | 67 | 0.0 | 1.6 | 0.00 | 0.00 | 0.00 | 60 | 1010.3 |
| 20260506212447 | 15 | 67 | 0.0 | 1.6 | 0.00 | 0.00 | 0.00 | 59 | 1010.3 |
| 20260506211947 | 15 | 67 | 0.0 | 4.8 | 0.00 | 0.00 | 0.00 | 59 | 1010.2 |
| 20260506211447 | 16 | 67 | 4.8 | 4.8 | 0.00 | 0.00 | 0.00 | 59 | 1010.2 |
| 20260506210946 | 16 | 67 | 1.6 | 1.6 | 0.00 | 0.00 | 0.00 | 59 | 1010.1 |
| 20260506210446 | 16 | 67 | 0.0 | 6.4 | 0.00 | 0.00 | 0.00 | 58 | 1010.0 |
| 20260506205946 | 16 | 67 | 4.8 | 4.8 | 0.00 | 0.00 | 0.00 | 57 | 1010.1 |
| 20260506205446 | 16 | 67 | 0.0 | 0.0 | 0.00 | 0.00 | 0.00 | 56 | 1010.0 |
| 20260506204945 | 17 | 67 | 0.0 | 3.2 | 0.00 | 0.00 | 0.00 | 56 | 1010.0 |
| 20260506204445 | 17 | 67 | 0.0 | 0.0 | 0.00 | 0.00 | 0.00 | 55 | 1010.0 |
| 20260506203945 | 17 | 67 | 0.0 | 3.2 | 0.00 | 0.00 | 0.00 | 56 | 1009.9 |
| 20260506203444 | 17 | 67 | 1.6 | 4.8 | 0.00 | 0.00 | 0.00 | 56 | 1009.9 |
| 20260506202944 | 17 | 67 | 3.2 | 4.8 | 0.00 | 0.00 | 0.00 | 56 | 1009.7 |
| 20260506202444 | 17 | 67 | 3.2 | 6.4 | 0.00 | 0.00 | 0.00 | 56 | 1009.6 |
| 20260506201944 | 17 | 45 | 6.4 | 6.4 | 0.00 | 0.00 | 0.00 | 56 | 1009.5 |
| 20260506201443 | 17 | 45 | 3.2 | 6.4 | 0.00 | 0.00 | 0.00 | 56 | 1009.5 |
| 20260506200943 | 17 | 67 | 4.8 | 4.8 | 0.00 | 0.00 | 0.00 | 56 | 1009.5 |
| 20260506200443 | 17 | 67 | 0.0 | 4.8 | 0.00 | 0.00 | 0.00 | 56 | 1009.4 |
| 20260506195942 | 17 | 45 | 4.8 | 4.8 | 0.00 | 0.00 | 0.00 | 55 | 1009.5 |
| 20260506195442 | 17 | 315 | 0.0 | 6.4 | 0.00 | 0.00 | 0.00 | 54 | 1009.6 |
| 20260506194942 | 17 | 315 | 3.2 | 3.2 | 0.00 | 0.00 | 0.00 | 55 | 1009.5 |
| 20260506194441 | 17 | 0 | 3.2 | 3.2 | 0.00 | 0.00 | 0.00 | 55 | 1009.4 |
| 20260506193941 | 17 | 0 | 3.2 | 3.2 | 0.00 | 0.00 | 0.00 | 55 | 1009.4 |
| 20260506193441 | 17 | 0 | 3.2 | 3.2 | 0.00 | 0.00 | 0.00 | 54 | 1009.3 |
| 20260506192941 | 17 | 315 | 0.0 | 1.6 | 0.00 | 0.00 | 0.00 | 52 | 1009.4 |
| 20260506192440 | 17 | 315 | 0.0 | 1.6 | 0.00 | 0.00 | 0.00 | 51 | 1009.4 |
| 20260506191940 | 17 | 315 | 0.0 | 1.6 | 0.00 | 0.00 | 0.00 | 51 | 1009.3 |
| 20260506191440 | 17 | 315 | 0.0 | 6.4 | 0.00 | 0.00 | 0.00 | 51 | 1009.3 |
| 20260506190939 | 17 | 45 | 1.6 | 3.2 | 0.00 | 0.00 | 0.00 | 51 | 1009.1 |
| 20260506190439 | 17 | 45 | 0.0 | 1.6 | 0.00 | 0.00 | 0.00 | 51 | 1009.1 |
| 20260506185939 | 18 | 45 | 0.0 | 3.2 | 0.00 | 0.00 | 0.00 | 51 | 1009.1 |
| 20260506185438 | 18 | 45 | 0.0 | 3.2 | 0.00 | 0.00 | 0.00 | 50 | 1009.1 |
| 20260506184938 | 18 | 45 | 0.0 | 3.2 | 0.00 | 0.00 | 0.00 | 49 | 1008.9 |
| 20260506184438 | 18 | 67 | 0.0 | 0.0 | 0.00 | 0.00 | 0.00 | 49 | 1008.9 |
| 20260506183938 | 18 | 67 | 0.0 | 3.2 | 0.00 | 0.00 | 0.00 | 49 | 1008.9 |
| 20260506183437 | 18 | 67 | 3.2 | 4.8 | 0.00 | 0.00 | 0.00 | 48 | 1008.9 |
| 20260506182937 | 18 | 22 | 1.6 | 4.8 | 0.00 | 0.00 | 0.00 | 48 | 1008.9 |
| 20260506182437 | 19 | 315 | 0.0 | 3.2 | 0.00 | 0.00 | 0.00 | 47 | 1008.9 |
| 20260506181936 | 19 | 315 | 3.2 | 3.2 | 0.00 | 0.00 | 0.00 | 47 | 1008.9 |
| 20260506181436 | 19 | 315 | 1.6 | 3.2 | 0.00 | 0.00 | 0.00 | 47 | 1008.9 |
| 20260506180936 | 19 | 0 | 0.0 | 6.4 | 0.00 | 0.00 | 0.00 | 46 | 1008.9 |
| 20260506180436 | 19 | 315 | 4.8 | 4.8 | 0.00 | 0.00 | 0.00 | 46 | 1009.0 |
| 20260506175935 | 19 | 45 | 1.6 | 3.2 | 0.00 | 0.00 | 0.00 | 46 | 1009.0 |
| 20260506175435 | 20 | 45 | 0.0 | 4.8 | 0.00 | 0.00 | 0.00 | 46 | 1009.0 |
| 20260506174935 | 20 | 45 | 3.2 | 8.0 | 0.00 | 0.00 | 0.00 | 45 | 1009.0 |
| 20260506174434 | 20 | 292 | 0.0 | 3.2 | 0.00 | 0.00 | 0.00 | 44 | 1009.0 |
| 20260506173934 | 20 | 292 | 0.0 | 6.4 | 0.00 | 0.00 | 0.00 | 43 | 1009.0 |
| 20260506173434 | -1 | 247 | 4.8 | 8.0 | 0.00 | 0.00 | 0.00 | 43 | 1009.0 |
| 20260506172934 | 21 | 247 | 1.6 | 8.0 | 0.00 | 0.00 | 0.00 | 42 | 1009.0 |
| 20260506172433 | 21 | 247 | 4.8 | 8.0 | 0.00 | 0.00 | 0.00 | 42 | 1009.0 |
| 20260506171933 | 21 | 225 | 0.0 | 9.7 | 0.00 | 0.00 | 0.00 | 41 | 1009.1 |
| 20260506171433 | 21 | 292 | 3.2 | 4.8 | 0.00 | 0.00 | 0.00 | 40 | 1009.1 |
| 20260506170932 | 22 | 180 | 1.6 | 3.2 | 0.00 | 0.00 | 0.00 | 39 | 1009.1 |
| 20260506170432 | 22 | 180 | 0.0 | 3.2 | 0.00 | 0.00 | 0.00 | 39 | 1009.1 |
| 20260506165932 | 22 | 180 | 0.0 | 6.4 | 0.00 | 0.00 | 0.00 | 38 | 1009.0 |
| 20260506165431 | 22 | 180 | 3.2 | 19.3 | 0.00 | 0.00 | 0.00 | 38 | 1009.0 |
| 20260506164931 | 22 | 225 | 6.4 | 20.9 | 0.00 | 0.00 | 0.00 | 38 | 1009.1 |
| 20260506164431 | 22 | 202 | 4.8 | 17.7 | 0.00 | 0.00 | 0.00 | 39 | 1009.0 |
| 20260506163931 | 22 | 202 | 12.9 | 22.5 | 0.00 | 0.00 | 0.00 | 38 | 1009.0 |
| 20260506163430 | 23 | 225 | 14.5 | 19.3 | 0.00 | 0.00 | 0.00 | 39 | 1009.0 |
| 20260506162930 | 23 | 202 | 8.0 | 16.1 | 0.00 | 0.00 | 0.00 | 40 | 1009.0 |
| 20260506162430 | 23 | 202 | 6.4 | 11.3 | 0.00 | 0.00 | 0.00 | 40 | 1009.1 |
| 20260506161929 | 23 | 225 | 3.2 | 12.9 | 0.00 | 0.00 | 0.00 | 40 | 1009.0 |
| 20260506161429 | 23 | 247 | 3.2 | 22.5 | 0.00 | 0.00 | 0.00 | 40 | 1009.1 |
| 20260506160929 | 23 | 225 | 19.3 | 19.3 | 0.00 | 0.00 | 0.00 | 39 | 1009.1 |
| 20260506160429 | 23 | 292 | 1.6 | 14.5 | 0.00 | 0.00 | 0.00 | 39 | 1009.1 |
| 20260506155928 | 24 | 225 | 9.7 | 22.5 | 0.00 | 0.00 | 0.00 | 38 | 1009.1 |
| 20260506155428 | 24 | 292 | 12.9 | 12.9 | 0.00 | 0.00 | 0.00 | 37 | 1009.0 |
| 20260506154928 | 25 | 202 | 4.8 | 12.9 | 0.00 | 0.00 | 0.00 | 36 | 1009.0 |
| 20260506154428 | 25 | 202 | 12.9 | 22.5 | 0.00 | 0.00 | 0.00 | 35 | 1009.1 |
| 20260506153927 | 25 | 202 | 11.3 | 20.9 | 0.00 | 0.00 | 0.00 | 35 | 1009.1 |
| 20260506153427 | 26 | 157 | 8.0 | 30.6 | 0.00 | 0.00 | 0.00 | 34 | 1009.0 |
| 20260506152926 | 26 | 225 | 9.7 | 24.1 | 0.00 | 0.00 | 0.00 | 34 | 1009.0 |
| 20260506152426 | 27 | 157 | 3.2 | 27.4 | 0.00 | 0.00 | 0.00 | 33 | 1009.0 |
| 20260506151926 | 27 | 202 | 25.7 | 32.2 | 0.00 | 0.00 | 0.00 | 33 | 1009.0 |
| 20260506151426 | 28 | 202 | 19.3 | 29.0 | 0.00 | 0.00 | 0.00 | 34 | 1009.0 |
| 20260506150925 | 27 | 225 | 11.3 | 29.0 | 0.00 | 0.00 | 0.00 | 35 | 1009.0 |
| 20260506150425 | 27 | 292 | 12.9 | 30.6 | 0.00 | 0.00 | 0.00 | 36 | 1009.0 |
| 20260506145925 | 27 | 225 | 29.0 | 32.2 | 0.00 | 0.00 | 0.00 | 36 | 1009.0 |
| 20260506145424 | 27 | 247 | 19.3 | 32.2 | 0.00 | 0.00 | 0.00 | 36 | 1009.0 |
| 20260506144924 | 27 | 247 | 25.7 | 32.2 | 0.00 | 0.00 | 0.00 | 35 | 1009.0 |